VOCB

Coimbatore International Airport

Coimbatore, India
TAF VOCB 252300Z 2600/2706 VRB03KT 4000 BR SCT015 SCT080 TEMPO 2603/2609 SCT015 FEW020CB BKN080 BECMG 2605/2606 6000 TEMPO 2612/2615 SCT015 FEW020CB BKN080 BECMG 2621/2622 4000 BR TEMPO 2703/2706 SCT015 FEW020CB BKN080 BECMG 2605/2606 6000
Issued Valid From Valid To
Apr-25 @ 23:00 UTC
(4 hours ago)
Apr-26 @ 00:00 UTC
(3 hours ago)
Apr-27 @ 06:00 UTC
(-1 days ago)
Apr-26 @ 00:00 to Apr-26 @ 05:00
TAF VOCB 252300Z 2600/2706 VRB03KT 4000 BR SCT015 SCT080
Wind Visibility Clouds Conditions
Variable at 3 knots 4,007 meters
  • Scattered at 1,500' AGL
  • Scattered at 8,000' AGL
  • Mist
Temporary Apr-26 @ 03:00 to Apr-26 @ 09:00
TEMPO 2603/2609 SCT015 FEW020CB BKN080
Clouds
  • Scattered at 1,500' AGL
  • Few at 2,000' AGL
  • Broken at 8,000' AGL
Becoming Apr-26 @ 05:00 to Apr-26 @ 21:00
BECMG 2605/2606 6000
Wind Visibility Clouds Conditions
Variable at 3 knots 6,003 meters
  • Scattered at 1,500' AGL
  • Scattered at 8,000' AGL
  • Mist
Becoming Apr-26 @ 05:00 to Apr-27 @ 06:00
BECMG 2605/2606 6000
Wind Visibility Clouds Conditions
Variable at 3 knots 6,003 meters
  • Scattered at 1,500' AGL
  • Scattered at 8,000' AGL
  • Mist
Temporary Apr-26 @ 12:00 to Apr-26 @ 15:00
TEMPO 2612/2615 SCT015 FEW020CB BKN080
Clouds
  • Scattered at 1,500' AGL
  • Few at 2,000' AGL
  • Broken at 8,000' AGL
Becoming Apr-26 @ 21:00 to Apr-27 @ 06:00
BECMG 2621/2622 4000 BR
Wind Visibility Clouds Conditions
Variable at 3 knots 4,007 meters
  • Scattered at 1,500' AGL
  • Scattered at 8,000' AGL
  • Mist
Temporary Apr-27 @ 03:00 to Apr-27 @ 06:00
TEMPO 2703/2706 SCT015 FEW020CB BKN080
Clouds
  • Scattered at 1,500' AGL
  • Few at 2,000' AGL
  • Broken at 8,000' AGL
TAF VOCB 252300Z 2600/2706 VRB03KT 4000 BR SCT015 SCT080 TEMPO 2603/2609 SCT015 FEW020CB BKN080 BECMG 2605/2606 6000 TEMPO 2612/2615 SCT015 FEW020CB BKN080 BECMG 2621/2622 4000 BR TEMPO 2703/2706 SCT015 FEW020CB BKN080 BECMG 2605/2606 6000
Issued Apr-25 @ 23:00 UTC
(4 hours ago)
Valid From Apr-26 @ 00:00 UTC
(3 hours ago)
Valid To Apr-27 @ 06:00 UTC
(-1 days ago)
Apr-26 @ 00:00 - Apr-26 @ 05:00
Wind Visibility
Variable at 3 knots 4,007 meters
Clouds
  • Scattered at 1,500' AGL
  • Scattered at 8,000' AGL
Conditions
  • Mist
Temporary Apr-26 @ 03:00 - Apr-26 @ 09:00
Clouds
  • Scattered at 1,500' AGL
  • Few at 2,000' AGL
  • Broken at 8,000' AGL
Becoming Apr-26 @ 05:00 - Apr-26 @ 21:00
Wind Visibility
Variable at 3 knots 6,003 meters
Clouds
  • Scattered at 1,500' AGL
  • Scattered at 8,000' AGL
Conditions
  • Mist
Becoming Apr-26 @ 05:00 - Apr-27 @ 06:00
Wind Visibility
Variable at 3 knots 6,003 meters
Clouds
  • Scattered at 1,500' AGL
  • Scattered at 8,000' AGL
Conditions
  • Mist
Temporary Apr-26 @ 12:00 - Apr-26 @ 15:00
Clouds
  • Scattered at 1,500' AGL
  • Few at 2,000' AGL
  • Broken at 8,000' AGL
Becoming Apr-26 @ 21:00 - Apr-27 @ 06:00
Wind Visibility
Variable at 3 knots 4,007 meters
Clouds
  • Scattered at 1,500' AGL
  • Scattered at 8,000' AGL
Conditions
  • Mist
Temporary Apr-27 @ 03:00 - Apr-27 @ 06:00
Clouds
  • Scattered at 1,500' AGL
  • Few at 2,000' AGL
  • Broken at 8,000' AGL